San Diego, California
Traffic Map
Current Weather Conditions
San Diego, California
Broken Clouds
Broken Clouds
18°
Feels Like: 18°
Wind Chill: 18° Ceiling: 1700
Heat Index: 18° Visibility: 10mi
Dew Point: 13° Wind: 8mph
Humidity: 70% Direction: 290° (WNW)
Pressure: 29.85in Gusts: 0mph
Raw Report DataKSAN 250108Z 29007KT 10SM BKN017 BKN100 BKN220 18/13 A2985 RMK AO2 T01830128
Traffic Incident Summary
Active as of:
Severity:
Category:
InformationThere was an issue retrieving the traffic information for this location. Please try a different location or try again shortly.
Advertisements
Track Severe Weather on mobile